Weather observations for the past three days for
Brunswick / Glynco
Imperial (Metric)
Date Time (edt) Wind (mph) Vis. (mi.) Weather Sky Cond. Temperature (ºF) Relative Humidity Wind Chill (°F) Heat Index (°F) Pressure Precipitation (in)
Air Dwpt 6 hour altimeter (in) sea level (mb) 1 hr 3 hr 6 hr
Max. Min.
07 16:55 W 22 G 30 10.00 Fair and Breezy CLR 82 66.9 60% 85 29.86 0.0
07 16:35 W 21 G 31 10.00 Fair and Breezy CLR 82.2 67.5 61% 85 29.86 0.0
07 16:15 W 17 G 28 10.00 Fair CLR 81 67.5 64% 84 29.86 0.0
07 15:55 W 17 G 28 10.00 Partly Cloudy SCT028 SCT045 SCT110 80.8 67.6 64% 83 29.86 0.0
07 15:35 SW 21 10.00 Partly Cloudy and Breezy SCT120 81.5 67.8 63% 84 29.86 0.0
07 15:15 SW 21 G 31 10.00 Partly Cloudy and Breezy SCT110 80.4 67.6 65% 83 29.86 0.0
07 14:55 SW 24 G 35 10.00 Fair and Breezy CLR 81.1 67.8 64% 84 29.83 0.0
07 14:35 SW 28 G 36 10.00 Fair and Windy CLR 81.5 67.3 62% 84 29.83 0.0
07 14:15 SW 24 G 36 10.00 Fair and Breezy CLR 82 68.4 63% 85 29.87 0.0
07 13:55 SW 25 G 32 10.00 Partly Cloudy and Breezy SCT033 SCT055 SCT120 78.6 68.4 79.3 70.5 71% 81 29.88 0.0
07 13:35 SW 18 G 31 10.00 Light Rain SCT033 SCT055 BKN100 78.6 68 70% 81 29.92 0.0
07 13:15 SW 20 10.00 Fair CLR 79.3 67.1 66% 82 29.9 0.0
07 12:55 SW 16 10.00 Partly Cloudy SCT100 SCT120 78.6 66.6 67% 81 29.91 0.0
07 12:35 SW 15 10.00 Fair CLR 78.4 65.5 65% 80 29.92 0.0
07 12:15 SW 15 10.00 Fair CLR 79.2 64.8 61% 81 29.95 0.0
07 11:55 SW 14 10.00 Fair CLR 78.4 64 61% 80 29.97 0.0
07 11:35 SW 17 10.00 Fair CLR 78.8 64.4 61% 81 29.99 0.0
07 11:15 SW 15 7.00 Fair CLR 78.8 64.2 61% 81 29.99 0.0
07 10:55 SW 13 7.00 Fair with Haze CLR 77.4 64.4 64% 79 29.97 0.0
07 10:35 S 13 7.00 Fair CLR 77.5 65.1 66% 79 29.96 0.0
07 10:15 S 10 10.00 Fair CLR 78.1 65.5 65% 80 29.96 0.0
07 09:55 S 7 7.00 Fair with Haze CLR 77.7 66.9 69% 80 29.96 0.0
07 09:35 SW 6 5.00 Fair with Haze CLR 77.2 68.7 75% 79 29.97 0.0
07 09:15 SW 7 3.00 Fair with Haze CLR 75.7 67.5 76% 77 29.98 0.0
07 08:55 SW 7 2.50 Fair with Haze CLR 73.6 67.3 81% 29.98 0.0
07 08:35 S 6 2.00 Fair with Haze CLR 72.1 66.9 84% 29.96 0.0
07 08:15 S 7 1.75 Sky Obscured with Haze VV007 71.2 66 84% 29.95 0.0
07 07:55 S 5 1.50 Fog/Mist VV007 69.8 66.2 74.7 67.5 88% 29.95 0.0
07 07:35 S 6 1.25 Fog/Mist VV007 68.9 64.8 87% 29.96 0.0
07 07:15 Calm 1.25 Fog/Mist VV007 67.5 63.7 88% 29.97 0.0
07 06:55 W 5 1.50 Fog/Mist VV007 68.4 63.7 85% 29.99 0.0
07 06:35 W 3 2.00 Partly Cloudy with Haze SCT007 SCT017 69.6 64.4 84% 29.99 0.0
07 06:15 NW 7 7.00 Partly Cloudy SCT015 69.8 64.6 84% 29.99 0.0
07 05:55 NW 6 10.00 Fair CLR 70.2 64.6 83% 29.97 0.0
07 05:35 W 5 10.00 Fair CLR 70.2 64.8 83% 29.96 0.0
07 05:15 W 7 10.00 Fair CLR 70.5 65.1 83% 29.96 0.0
07 04:55 SW 7 10.00 Fair CLR 71.2 64.8 80% 29.94 0.0
07 04:35 SW 8 10.00 Fair CLR 72.1 64.6 77% 29.92 0.0
07 04:15 SW 9 10.00 Fair CLR 73.4 64.9 75% 29.91 0.0
07 03:55 SW 9 10.00 Fair CLR 73.6 64.4 73% 29.91 0.0
07 03:35 S 9 10.00 Fair CLR 73.9 64.4 72% 29.9 0.0
07 03:15 S 9 10.00 Fair CLR 74.1 64.4 72% 29.91 0.0
07 02:55 S 8 10.00 Fair CLR 74.1 64.4 72% 29.93 0.0
07 02:35 S 9 10.00 Fair CLR 74.5 64.4 71% 29.94 0.0
07 02:15 S 7 10.00 Fair CLR 74.7 64.4 71% 29.94 0.0
07 01:55 SW 7 10.00 Fair CLR 74.7 64.2 76.8 74.7 70% 29.95 0.0
07 01:35 S 8 10.00 Fair CLR 74.7 64.2 70% 29.96 0.0
07 01:15 S 6 10.00 Fair CLR 75 64 69% 77 29.96 0.0
07 00:55 S 9 10.00 Fair CLR 75.6 64.2 68% 77 29.97 0.0
07 00:35 SW 10 10.00 Fair CLR 75.9 64.2 67% 78 29.97 0.0
07 00:15 S 10 10.00 Fair CLR 76.1 64.2 67% 78 29.97 0.0
06 23:55 S 12 10.00 Fair CLR 75.9 63.9 66% 78 29.97 0.0
06 23:15 S 13 G 18 10.00 Fair CLR 75.6 64.2 68% 77 29.97 0.0
06 22:55 S 13 10.00 Fair CLR 75 64.9 71% 77 29.97 0.0
06 22:35 S 12 10.00 Fair CLR 75.2 65.5 72% 77 29.96 0.0
06 22:15 S 9 10.00 Fair CLR 75.2 66 73% 77 29.97 0.0
06 21:35 S 12 10.00 Fair CLR 75.6 66.4 73% 77 29.97 0.0
06 21:15 S 14 G 18 10.00 Fair CLR 75.6 66.6 74% 77 29.97 0.0
06 20:55 S 14 10.00 Fair CLR 75.4 66.4 74% 77 29.97 0.0
06 20:35 S 10 10.00 Fair CLR 75.6 66 72% 77 29.96 0.0
06 20:15 S 10 10.00 Fair CLR 76.1 65.3 69% 78 29.97 0.0
06 19:55 S 8 10.00 Fair CLR 77 64.9 89.6 76.8 66% 79 29.97 0.0
06 19:35 S 12 10.00 Fair CLR 78.6 65.1 63% 80 29.97 0.0
06 19:15 SE 10 10.00 Fair CLR 81 66.6 62% 83 29.96 0.0
06 18:55 SE 12 10.00 Fair CLR 81.9 66.9 61% 84 29.96 0.0
06 18:35 SE 12 10.00 Fair CLR 82.8 67.8 61% 86 29.96 0.0
06 18:15 SE 12 10.00 Fair CLR 83.7 67.6 59% 87 29.97 0.0
06 17:55 SE 15 10.00 Fair CLR 84 67.3 57% 87 29.96 0.0
06 17:35 S 15 10.00 Fair CLR 84.2 67.1 57% 87 29.96 0.0
06 17:15 S 17 10.00 Fair CLR 84.7 66.6 55% 87 29.96 0.0
06 16:55 S 13 10.00 Fair CLR 85.6 67.1 54% 88 29.96 0.0
06 16:35 SE 15 G 18 10.00 Fair CLR 85.8 66.7 53% 88 29.97 0.0
06 16:15 S 16 10.00 Fair CLR 86.2 66.2 51% 89 29.97 0.0
06 15:55 S 14 G 20 10.00 Fair CLR 86.9 66.9 52% 90 29.97 0.0
06 15:35 SE 14 G 21 10.00 Fair CLR 87.6 66.7 50% 90 29.98 0.0
06 15:15 SE 12 10.00 Fair CLR 87.3 66.7 51% 90 29.99 0.0
06 14:55 SE 17 10.00 Fair CLR 88.2 66.4 49% 91 30 0.0
06 14:35 S 15 10.00 Fair CLR 88.7 66.2 47% 91 30 0.0
06 14:15 SE 10 G 18 10.00 Fair CLR 89.2 65.8 46% 92 30.01 0.0
06 13:55 SE 8 10.00 Partly Cloudy SCT050 89.6 66 90.7 68.9 46% 92 30.01 0.0
06 13:35 S 9 G 23 10.00 Partly Cloudy SCT050 90.1 65.5 44% 92 30.02 0.0
06 13:15 SW 9 10.00 Fair CLR 88.3 63.3 43% 89 30.03 0.0
06 12:55 SW 10 10.00 Fair CLR 88 63 43% 89 30.03 0.0
06 12:35 SW 9 G 18 10.00 Fair CLR 86.7 63 45% 88 30.04 0.0
06 11:55 SW 6 10.00 Fair CLR 86.4 62.2 44% 87 30.05 0.0
06 11:35 SW 10 10.00 Fair CLR 85.3 62.6 47% 86 30.05 0.0
06 11:15 SW 12 10.00 Fair CLR 84 62.2 48% 85 30.05 0.0
06 10:15 SW 13 10.00 Fair CLR 80.6 62.8 55% 82 30.04 0.0
06 09:55 SW 13 10.00 Fair CLR 78.6 63 59% 80 30.04 0.0
06 09:35 S 13 10.00 Fair CLR 77.7 62.8 60% 79 30.03 0.0
06 09:15 SW 13 10.00 Fair CLR 75.9 61.9 62% 78 30.03 0.0
06 08:55 S 10 10.00 Fair CLR 74.8 61.7 64% 30.04 0.0
06 08:35 S 12 10.00 Fair CLR 72.7 61.3 68% 30.03 0.0
06 08:15 S 9 10.00 Fair CLR 70.3 62.1 75% 30.03 0.0
06 07:55 S 7 10.00 Fair CLR 68.7 62.4 68.9 59.4 80% 30.03 0.0
06 07:35 SW 7 10.00 Fair CLR 66 61.5 86% 30.03 0.0
06 07:15 S 6 10.00 Fair CLR 62.1 59 90% 30.01 0.0
06 06:55 Calm 10.00 Fair CLR 59.4 55.9 89% 30.01 0.0
06 06:35 Calm 10.00 Fair CLR 59.5 55.8 87% 30 0.0
06 06:15 S 3 10.00 Fair CLR 60.4 57.2 89% 30.01 0.0
06 05:55 SW 5 10.00 Fair CLR 61 57.9 90% 30.01 0.0
06 05:35 SW 5 10.00 Fair CLR 61.3 57.6 87% 30 0.0
06 05:15 S 3 10.00 Fair CLR 61.7 58.1 88% 30 0.0
06 04:55 S 5 10.00 Fair CLR 61.3 58.3 90% 30 0.0
06 04:35 S 5 10.00 Fair CLR 61.2 57.9 89% 30 0.0
06 04:15 S 3 10.00 Fair CLR 61.3 57.6 87% 30 0.0
06 03:55 S 3 10.00 Fair CLR 61.7 57.7 87% 30 0.0
06 03:35 SW 3 10.00 Fair CLR 62.4 57.4 84% 30 0.0
06 03:15 S 3 10.00 Fair CLR 62.2 57.4 84% 29.99 0.0
06 02:55 S 3 10.00 Fair CLR 63.9 57.4 80% 30 0.0
06 02:35 SE 6 10.00 Fair CLR 61.9 57 84% 30 0.0
06 02:15 S 3 10.00 Fair CLR 61.7 57 85% 30.02 0.0
06 01:55 S 3 10.00 Fair CLR 61.2 56.7 71.1 59.5 85% 30.02 0.0
06 01:35 S 3 10.00 Fair CLR 61 57.4 88% 30.03 0.0
06 01:15 SW 5 10.00 Fair CLR 60.3 55.8 85% 30.03 0.0
06 00:35 S 3 10.00 Fair CLR 61.3 55.4 81% 30.03 0.0
06 00:15 S 5 10.00 Fair CLR 61.5 53.6 75% 30.02 0.0
05 23:55 S 5 10.00 Fair CLR 59.7 50.7 72% 30.03 0.0
05 23:35 Calm 10.00 Fair CLR 61.3 53.4 75% 30.04 0.0
05 23:15 Calm 10.00 Fair CLR 65.1 54.1 68% 30.03 0.0
05 22:55 S 6 10.00 Fair CLR 66 55.6 69% 30.03 0.0
05 22:35 SE 5 10.00 Fair CLR 66 54.1 66% 30.02 0.0
05 22:15 SE 5 10.00 Fair CLR 66.9 55.8 68% 30.02 0.0
05 21:55 SE 6 10.00 Fair CLR 66.6 55.9 69% 30.02 0.0
05 21:35 SE 6 10.00 Fair CLR 67.3 55.6 66% 30.01 0.0
05 21:15 SE 6 10.00 Fair CLR 67.8 55.2 64% 30.01 0.0
05 20:55 SE 7 10.00 Fair CLR 68.4 54.5 61% 30.01 0.0
05 20:35 SE 7 10.00 Fair CLR 69.1 54.7 60% 30.01 0.0
05 20:15 SE 8 10.00 Fair CLR 69.8 54.9 59% 30 0.0
05 19:55 SE 8 10.00 Fair CLR 71.2 55.6 83.1 71.1 58% 30 0.0
05 19:35 SE 10 10.00 Fair CLR 72.9 56.1 56% 30.01 0.0
05 19:15 SE 12 10.00 Fair CLR 74.8 55.8 52% 30 0.0
05 18:55 SE 12 10.00 Fair CLR 75.4 56.3 52% 78 30.01 0.0
05 18:35 SE 13 10.00 Fair CLR 76.5 56.5 50% 78 30 0.0
05 18:15 SE 13 10.00 Fair CLR 77 56.1 49% 79 30 0.0
05 17:55 SE 16 10.00 Fair CLR 78.1 56.8 48% 79 30 0.0
05 17:35 SE 13 10.00 Fair CLR 77.7 57.2 49% 79 30.01 0.0
05 17:15 SE 14 10.00 Fair CLR 80.1 58.5 48% 81 30.01 0.0
05 16:35 SE 13 10.00 Fair CLR 81 56.7 43% 81 30.01 0.0
05 16:15 SE 10 G 21 10.00 Fair CLR 81.3 54 39% 81 30.02 0.0
05 15:55 E 12 10.00 Fair CLR 82.4 54.5 38% 82 30.02 0.0
05 15:35 E 13 10.00 Fair CLR 82.2 54.1 38% 81 30.03 0.0
05 15:15 SE 13 G 21 10.00 Fair CLR 81.9 55.2 40% 81 30.03 0.0
05 14:55 SE 15 10.00 Fair CLR 82.6 56.5 41% 82 30.04 0.0
05 14:35 SE 14 G 18 10.00 Fair CLR 82.8 57.2 42% 82 30.05 0.0
05 14:15 SE 13 10.00 Fair CLR 82.8 57.2 42% 82 30.05 0.0
05 13:55 SE 13 10.00 Fair CLR 82 57.7 82.8 57.6 44% 82 30.05 0.0
05 13:35 SE 14 10.00 Fair CLR 82.2 58.1 44% 82 30.05 0.0
05 13:15 S 14 10.00 Fair CLR 82.2 57.9 44% 82 30.05 0.0
05 12:55 SE 12 10.00 Fair CLR 81.9 57.9 44% 82 30.06 0.0
05 12:35 SE 9 10.00 Fair CLR 82.2 57.7 43% 82 30.06 0.0
05 12:15 E 7 10.00 Fair CLR 82.4 57 42% 82 30.06 0.0
05 11:55 SE 9 10.00 Fair CLR 82.6 56.5 41% 82 30.06 0.0
05 11:15 SE 10 10.00 Fair CLR 81 55 41% 81 30.07 0.0
05 10:55 SE 7 10.00 Fair CLR 79.9 56.8 45% 80 30.07 0.0
05 10:35 S 7 10.00 Fair CLR 79 57 47% 80 30.06 0.0
05 10:15 SE 5 10.00 Fair CLR 77.7 58.1 51% 79 30.06 0.0
05 09:55 SE 6 10.00 Fair CLR 76.6 58.6 54% 78 30.06 0.0
05 09:35 S 7 10.00 Fair CLR 75.4 60.1 59% 78 30.06 0.0
05 09:15 SE 6 10.00 Fair CLR 73.6 64.6 74% 30.06 0.0
05 08:55 E 3 10.00 Fair CLR 69.4 66.9 92% 30.05 0.0
05 08:35 Calm 10.00 Fair CLR 64.4 63 95% 30.05 0.0
05 08:15 Calm 10.00 Fair CLR 61.3 60.4 97% 30.04 0.0
05 07:55 Calm 10.00 Fair CLR 57 55.8 64 51.3 96% 30.04 0.0
05 07:35 Calm 10.00 Fair CLR 55.2 54 96% 30.04 0.0
05 07:15 Calm 10.00 Fair CLR 52.5 51.1 95% 30.03 0.0
05 06:55 Calm 10.00 Fair CLR 52 50.5 95% 30.03 0.0
05 06:35 Calm 10.00 Fair CLR 51.6 50.2 95% 30.03 0.0
05 06:15 Calm 10.00 Fair CLR 51.4 50 95% 30.03 0.0
05 05:55 Calm 10.00 Fair CLR 52 50.5 95% 30.01 0.0
05 05:35 W 3 10.00 Fair CLR 52.5 51.1 95% 30.01 0.0
05 05:15 Calm 4.00 Fog/Mist CLR 52.2 50.2 93% 30 0.0
05 04:55 Calm 10.00 Fair CLR 52 48.2 87% 30.01 0.0
05 04:35 Calm 10.00 Fair CLR 52.9 49.6 89% 30 0.0
05 04:15 Calm 10.00 Fair CLR 52.5 47.8 84% 30 0.0
05 03:55 Calm 10.00 Fair CLR 54.1 50.4 87% 30 0.0
05 03:35 Calm 10.00 Fair CLR 55.2 49.1 80% 30 0.0
05 03:15 Calm 10.00 Fair CLR 56.1 49.6 79% 30.01 0.0
05 02:55 S 3 10.00 Fair CLR 58.8 49.8 72% 30.01 0.0
05 02:35 SW 5 10.00 Fair CLR 62.8 52.9 70% 30.01 0.0
05 02:15 S 6 10.00 Fair CLR 64 54.9 72% 30.02 0.0
05 01:35 SE 7 10.00 Fair CLR 64 54.3 71% 30.03 0.0
05 01:15 SE 7 10.00 Fair CLR 64.2 54.5 71% 30.04 0.0
05 00:55 SE 7 10.00 Fair CLR 64.4 54.9 71% 30.05 0.0
05 00:15 SE 7 10.00 Fair CLR 64.6 55.4 72% 30.05 0.0
04 23:55 SE 7 10.00 Fair CLR 64.4 55.2 72% 30.05 0.0
04 23:35 SE 7 10.00 Fair CLR 64.6 55.6 73% 30.05 0.0
04 23:15 SE 6 10.00 Fair CLR 64.4 54.9 71% 30.05 0.0
04 22:55 SE 6 10.00 Fair CLR 64.6 54.3 70% 30.04 0.0
04 22:35 SE 7 10.00 Fair CLR 65.3 54.5 68% 30.04 0.0
04 22:15 SE 7 10.00 Fair CLR 65.5 54.9 69% 30.04 0.0
04 21:55 SE 8 10.00 Fair CLR 65.3 55.2 70% 30.04 0.0
04 21:35 SE 8 10.00 Fair CLR 64.8 54.9 70% 30.04 0.0
04 21:15 SE 7 10.00 Fair CLR 64.9 54 68% 30.04 0.0
04 20:55 SE 7 10.00 Fair CLR 65.5 53.2 65% 30.04 0.0
04 20:35 SE 6 10.00 Fair CLR 66.6 52.5 61% 30.04 0.0
04 20:15 SE 7 10.00 Fair CLR 67.8 52.2 57% 30.03 0.0
04 19:55 SE 9 10.00 Fair CLR 70.2 51.8 80.1 69.8 52% 30.03 0.0
04 19:35 SE 12 10.00 Fair CLR 72 51.6 49% 30.03 0.0
04 19:15 SE 13 10.00 Fair CLR 73.4 51.3 46% 30.03 0.0
04 18:55 SE 12 10.00 Fair CLR 74.3 51.1 44% 30.03 0.0
04 18:35 SE 10 10.00 Fair CLR 75.4 51.1 43% 78 30.03 0.0
04 18:15 SE 13 G 18 10.00 Fair CLR 76.5 50.7 41% 78 30.04 0.0
04 17:55 SE 12 10.00 Fair CLR 76.6 50 39% 78 30.03 0.0
04 17:35 SE 12 10.00 Fair CLR 77.5 50 38% 78 30.03 0.0
Date Time (edt) Wind (mph) Vis. (mi.) Weather Sky Cond. Air Dwpt Max. Min. Relative Humidity Wind Chill (°F) Heat Index (°F) altimeter (in) sea level (mb) 1 hr 3 hr 6 hr
6 hour
Temperature (ºF) Pressure Precipitation (in)